sensor_id;sensor_type;location;lat;lon;timestamp;P1;durP1;ratioP1;P2;durP2;ratioP2
4676;SDS011;2352;48.180;11.478;2023-06-14T00:02:52;5.10;;;4.43;;
4676;SDS011;2352;48.180;11.478;2023-06-14T00:05:58;4.40;;;4.00;;
4676;SDS011;2352;48.180;11.478;2023-06-14T00:09:01;5.20;;;3.57;;
4676;SDS011;2352;48.180;11.478;2023-06-14T00:12:04;4.30;;;3.90;;
4676;SDS011;2352;48.180;11.478;2023-06-14T00:15:08;5.40;;;4.10;;
4676;SDS011;2352;48.180;11.478;2023-06-14T00:18:11;4.63;;;4.07;;
4676;SDS011;2352;48.180;11.478;2023-06-14T00:21:16;3.93;;;3.63;;
4676;SDS011;2352;48.180;11.478;2023-06-14T00:24:19;3.77;;;3.47;;
4676;SDS011;2352;48.180;11.478;2023-06-14T00:27:22;5.13;;;4.10;;
4676;SDS011;2352;48.180;11.478;2023-06-14T00:30:26;4.73;;;4.33;;
4676;SDS011;2352;48.180;11.478;2023-06-14T00:33:32;4.73;;;3.93;;
4676;SDS011;2352;48.180;11.478;2023-06-14T00:36:36;5.07;;;4.23;;
4676;SDS011;2352;48.180;11.478;2023-06-14T00:39:39;6.47;;;4.13;;
4676;SDS011;2352;48.180;11.478;2023-06-14T00:42:42;4.87;;;4.40;;
4676;SDS011;2352;48.180;11.478;2023-06-14T00:45:45;4.70;;;4.30;;
4676;SDS011;2352;48.180;11.478;2023-06-14T00:48:48;4.90;;;4.50;;
4676;SDS011;2352;48.180;11.478;2023-06-14T00:51:52;4.73;;;4.30;;
4676;SDS011;2352;48.180;11.478;2023-06-14T00:54:55;5.07;;;4.57;;
4676;SDS011;2352;48.180;11.478;2023-06-14T00:57:58;5.40;;;4.13;;
4676;SDS011;2352;48.180;11.478;2023-06-14T01:01:01;3.97;;;3.63;;
4676;SDS011;2352;48.180;11.478;2023-06-14T01:04:05;4.97;;;4.57;;
4676;SDS011;2352;48.180;11.478;2023-06-14T01:07:10;4.57;;;4.17;;
4676;SDS011;2352;48.180;11.478;2023-06-14T01:10:25;5.63;;;3.97;;
4676;SDS011;2352;48.180;11.478;2023-06-14T01:13:35;4.13;;;3.83;;
4676;SDS011;2352;48.180;11.478;2023-06-14T01:16:40;4.30;;;3.93;;
4676;SDS011;2352;48.180;11.478;2023-06-14T01:19:46;5.03;;;4.60;;
4676;SDS011;2352;48.180;11.478;2023-06-14T01:22:52;4.37;;;3.97;;
4676;SDS011;2352;48.180;11.478;2023-06-14T01:25:55;5.37;;;4.87;;
4676;SDS011;2352;48.180;11.478;2023-06-14T01:28:58;5.80;;;4.43;;
4676;SDS011;2352;48.180;11.478;2023-06-14T01:32:01;4.40;;;4.00;;
4676;SDS011;2352;48.180;11.478;2023-06-14T01:35:06;6.87;;;5.13;;
4676;SDS011;2352;48.180;11.478;2023-06-14T01:38:10;4.07;;;3.77;;
4676;SDS011;2352;48.180;11.478;2023-06-14T01:41:14;7.33;;;3.77;;
4676;SDS011;2352;48.180;11.478;2023-06-14T01:44:18;4.47;;;4.07;;
4676;SDS011;2352;48.180;11.478;2023-06-14T01:47:22;4.47;;;4.07;;
4676;SDS011;2352;48.180;11.478;2023-06-14T01:50:27;7.03;;;4.30;;
4676;SDS011;2352;48.180;11.478;2023-06-14T01:53:32;4.50;;;4.10;;
4676;SDS011;2352;48.180;11.478;2023-06-14T01:56:36;5.30;;;4.80;;
4676;SDS011;2352;48.180;11.478;2023-06-14T01:59:39;5.93;;;4.67;;
4676;SDS011;2352;48.180;11.478;2023-06-14T02:02:42;4.70;;;4.40;;
4676;SDS011;2352;48.180;11.478;2023-06-14T02:05:47;4.27;;;3.97;;
4676;SDS011;2352;48.180;11.478;2023-06-14T02:08:51;4.80;;;4.40;;
4676;SDS011;2352;48.180;11.478;2023-06-14T02:11:55;7.90;;;4.77;;
4676;SDS011;2352;48.180;11.478;2023-06-14T02:14:58;4.00;;;3.70;;
4676;SDS011;2352;48.180;11.478;2023-06-14T02:18:01;4.37;;;4.07;;
4676;SDS011;2352;48.180;11.478;2023-06-14T02:21:05;4.13;;;3.73;;
4676;SDS011;2352;48.180;11.478;2023-06-14T02:24:09;5.40;;;4.27;;
4676;SDS011;2352;48.180;11.478;2023-06-14T02:27:12;4.70;;;4.40;;
4676;SDS011;2352;48.180;11.478;2023-06-14T02:30:16;4.57;;;4.17;;
4676;SDS011;2352;48.180;11.478;2023-06-14T02:33:19;6.90;;;4.50;;
4676;SDS011;2352;48.180;11.478;2023-06-14T02:36:23;5.27;;;4.60;;
4676;SDS011;2352;48.180;11.478;2023-06-14T02:39:27;4.77;;;4.30;;
4676;SDS011;2352;48.180;11.478;2023-06-14T02:42:31;3.97;;;3.67;;
4676;SDS011;2352;48.180;11.478;2023-06-14T02:45:34;4.77;;;4.30;;
4676;SDS011;2352;48.180;11.478;2023-06-14T02:48:37;5.53;;;5.03;;
4676;SDS011;2352;48.180;11.478;2023-06-14T02:51:41;5.53;;;4.47;;
4676;SDS011;2352;48.180;11.478;2023-06-14T02:54:45;4.53;;;4.13;;
4676;SDS011;2352;48.180;11.478;2023-06-14T02:57:49;5.13;;;4.63;;
4676;SDS011;2352;48.180;11.478;2023-06-14T03:00:54;5.57;;;4.83;;
4676;SDS011;2352;48.180;11.478;2023-06-14T03:03:58;5.27;;;4.83;;
4676;SDS011;2352;48.180;11.478;2023-06-14T03:07:01;4.73;;;4.33;;
4676;SDS011;2352;48.180;11.478;2023-06-14T03:10:11;4.60;;;3.80;;
4676;SDS011;2352;48.180;11.478;2023-06-14T03:13:16;5.30;;;4.80;;
4676;SDS011;2352;48.180;11.478;2023-06-14T03:16:22;4.67;;;4.27;;
4676;SDS011;2352;48.180;11.478;2023-06-14T03:19:26;4.67;;;4.37;;
4676;SDS011;2352;48.180;11.478;2023-06-14T03:22:29;4.73;;;4.40;;
4676;SDS011;2352;48.180;11.478;2023-06-14T03:25:35;5.53;;;5.03;;
4676;SDS011;2352;48.180;11.478;2023-06-14T03:28:39;5.00;;;4.60;;
4676;SDS011;2352;48.180;11.478;2023-06-14T03:31:55;5.03;;;4.53;;
4676;SDS011;2352;48.180;11.478;2023-06-14T03:34:59;4.50;;;4.20;;
4676;SDS011;2352;48.180;11.478;2023-06-14T03:38:02;6.00;;;4.37;;
4676;SDS011;2352;48.180;11.478;2023-06-14T03:41:07;5.73;;;5.10;;
4676;SDS011;2352;48.180;11.478;2023-06-14T03:44:11;5.40;;;4.90;;
4676;SDS011;2352;48.180;11.478;2023-06-14T03:47:14;9.53;;;5.13;;
4676;SDS011;2352;48.180;11.478;2023-06-14T03:50:18;5.67;;;5.17;;
4676;SDS011;2352;48.180;11.478;2023-06-14T03:53:21;4.23;;;3.93;;
4676;SDS011;2352;48.180;11.478;2023-06-14T03:56:26;4.93;;;4.20;;
4676;SDS011;2352;48.180;11.478;2023-06-14T03:59:30;5.67;;;5.27;;
4676;SDS011;2352;48.180;11.478;2023-06-14T04:02:33;8.83;;;4.93;;
4676;SDS011;2352;48.180;11.478;2023-06-14T04:05:37;6.20;;;4.73;;
4676;SDS011;2352;48.180;11.478;2023-06-14T04:08:43;8.70;;;4.87;;
4676;SDS011;2352;48.180;11.478;2023-06-14T04:11:48;5.43;;;4.23;;
4676;SDS011;2352;48.180;11.478;2023-06-14T04:14:51;10.13;;;5.70;;
4676;SDS011;2352;48.180;11.478;2023-06-14T04:17:57;8.40;;;5.20;;
4676;SDS011;2352;48.180;11.478;2023-06-14T04:21:00;4.50;;;4.10;;
4676;SDS011;2352;48.180;11.478;2023-06-14T04:24:04;4.63;;;4.33;;
4676;SDS011;2352;48.180;11.478;2023-06-14T04:27:09;10.40;;;4.67;;
4676;SDS011;2352;48.180;11.478;2023-06-14T04:30:12;5.30;;;4.27;;
4676;SDS011;2352;48.180;11.478;2023-06-14T04:33:16;5.77;;;4.67;;
4676;SDS011;2352;48.180;11.478;2023-06-14T04:36:20;5.90;;;4.27;;
4676;SDS011;2352;48.180;11.478;2023-06-14T04:39:23;6.17;;;4.57;;
4676;SDS011;2352;48.180;11.478;2023-06-14T04:42:29;4.67;;;4.33;;
4676;SDS011;2352;48.180;11.478;2023-06-14T04:45:33;5.27;;;4.77;;
4676;SDS011;2352;48.180;11.478;2023-06-14T04:51:42;8.80;;;5.10;;
4676;SDS011;2352;48.180;11.478;2023-06-14T04:54:45;5.47;;;5.00;;
4676;SDS011;2352;48.180;11.478;2023-06-14T04:57:51;5.53;;;5.03;;
4676;SDS011;2352;48.180;11.478;2023-06-14T05:00:55;4.97;;;4.43;;
4676;SDS011;2352;48.180;11.478;2023-06-14T05:04:00;4.90;;;4.50;;
4676;SDS011;2352;48.180;11.478;2023-06-14T05:07:04;5.53;;;5.03;;
4676;SDS011;2352;48.180;11.478;2023-06-14T05:10:07;5.43;;;5.03;;
4676;SDS011;2352;48.180;11.478;2023-06-14T05:13:12;4.43;;;4.13;;
4676;SDS011;2352;48.180;11.478;2023-06-14T05:16:15;5.97;;;4.40;;
4676;SDS011;2352;48.180;11.478;2023-06-14T05:19:20;4.37;;;3.97;;
4676;SDS011;2352;48.180;11.478;2023-06-14T05:22:24;3.83;;;3.53;;
4676;SDS011;2352;48.180;11.478;2023-06-14T05:25:27;6.67;;;4.27;;
4676;SDS011;2352;48.180;11.478;2023-06-14T05:28:31;4.00;;;3.70;;
4676;SDS011;2352;48.180;11.478;2023-06-14T05:31:35;4.00;;;3.70;;
4676;SDS011;2352;48.180;11.478;2023-06-14T05:34:38;6.07;;;3.97;;
4676;SDS011;2352;48.180;11.478;2023-06-14T05:37:41;4.30;;;3.80;;
4676;SDS011;2352;48.180;11.478;2023-06-14T05:40:44;3.37;;;3.07;;
4676;SDS011;2352;48.180;11.478;2023-06-14T05:43:49;4.70;;;3.63;;
4676;SDS011;2352;48.180;11.478;2023-06-14T05:46:52;4.63;;;3.23;;
4676;SDS011;2352;48.180;11.478;2023-06-14T05:49:55;2.97;;;2.77;;
4676;SDS011;2352;48.180;11.478;2023-06-14T05:52:59;5.27;;;3.70;;
4676;SDS011;2352;48.180;11.478;2023-06-14T05:56:02;4.00;;;3.60;;
4676;SDS011;2352;48.180;11.478;2023-06-14T05:59:07;3.27;;;2.97;;
4676;SDS011;2352;48.180;11.478;2023-06-14T06:02:10;3.67;;;3.37;;
4676;SDS011;2352;48.180;11.478;2023-06-14T06:05:13;5.77;;;3.27;;
4676;SDS011;2352;48.180;11.478;2023-06-14T06:08:18;6.27;;;3.23;;
4676;SDS011;2352;48.180;11.478;2023-06-14T06:11:21;4.90;;;3.77;;
4676;SDS011;2352;48.180;11.478;2023-06-14T06:14:26;3.43;;;3.20;;
4676;SDS011;2352;48.180;11.478;2023-06-14T06:17:28;3.97;;;3.17;;
4676;SDS011;2352;48.180;11.478;2023-06-14T06:20:46;4.30;;;3.50;;
4676;SDS011;2352;48.180;11.478;2023-06-14T06:23:49;4.00;;;3.23;;
4676;SDS011;2352;48.180;11.478;2023-06-14T06:26:52;4.00;;;3.70;;
4676;SDS011;2352;48.180;11.478;2023-06-14T06:29:56;4.30;;;2.90;;
4676;SDS011;2352;48.180;11.478;2023-06-14T06:32:59;3.20;;;2.93;;
4676;SDS011;2352;48.180;11.478;2023-06-14T06:36:02;5.23;;;2.97;;
4676;SDS011;2352;48.180;11.478;2023-06-14T06:39:05;2.93;;;2.73;;
4676;SDS011;2352;48.180;11.478;2023-06-14T06:42:12;3.07;;;2.87;;
4676;SDS011;2352;48.180;11.478;2023-06-14T06:45:16;4.57;;;3.33;;
4676;SDS011;2352;48.180;11.478;2023-06-14T06:48:19;2.83;;;2.63;;
4676;SDS011;2352;48.180;11.478;2023-06-14T06:51:22;4.90;;;3.43;;
4676;SDS011;2352;48.180;11.478;2023-06-14T06:54:25;3.87;;;3.57;;
4676;SDS011;2352;48.180;11.478;2023-06-14T06:57:27;3.50;;;3.20;;
4676;SDS011;2352;48.180;11.478;2023-06-14T07:00:32;3.93;;;3.63;;
4676;SDS011;2352;48.180;11.478;2023-06-14T07:03:35;3.90;;;3.70;;
4676;SDS011;2352;48.180;11.478;2023-06-14T07:06:38;3.57;;;3.30;;
4676;SDS011;2352;48.180;11.478;2023-06-14T07:09:41;8.33;;;4.03;;
4676;SDS011;2352;48.180;11.478;2023-06-14T07:12:44;6.00;;;4.53;;
4676;SDS011;2352;48.180;11.478;2023-06-14T07:15:48;4.03;;;3.73;;
4676;SDS011;2352;48.180;11.478;2023-06-14T07:18:54;3.93;;;3.60;;
4676;SDS011;2352;48.180;11.478;2023-06-14T07:21:57;4.47;;;3.80;;
4676;SDS011;2352;48.180;11.478;2023-06-14T07:25:00;4.50;;;4.10;;
4676;SDS011;2352;48.180;11.478;2023-06-14T07:28:04;5.20;;;4.03;;
4676;SDS011;2352;48.180;11.478;2023-06-14T07:31:09;3.80;;;2.83;;
4676;SDS011;2352;48.180;11.478;2023-06-14T07:34:12;3.77;;;3.47;;
4676;SDS011;2352;48.180;11.478;2023-06-14T07:37:14;4.53;;;3.50;;
4676;SDS011;2352;48.180;11.478;2023-06-14T07:40:17;4.73;;;4.20;;
4676;SDS011;2352;48.180;11.478;2023-06-14T07:43:20;4.93;;;4.03;;
4676;SDS011;2352;48.180;11.478;2023-06-14T07:46:24;4.00;;;3.27;;
4676;SDS011;2352;48.180;11.478;2023-06-14T07:49:27;3.03;;;2.73;;
4676;SDS011;2352;48.180;11.478;2023-06-14T07:52:30;5.37;;;3.60;;
4676;SDS011;2352;48.180;11.478;2023-06-14T07:55:33;6.73;;;3.37;;
4676;SDS011;2352;48.180;11.478;2023-06-14T07:58:53;3.50;;;3.20;;
4676;SDS011;2352;48.180;11.478;2023-06-14T08:01:57;3.77;;;2.90;;
4676;SDS011;2352;48.180;11.478;2023-06-14T08:05:00;4.57;;;3.28;;
4676;SDS011;2352;48.180;11.478;2023-06-14T08:08:03;3.30;;;3.10;;
4676;SDS011;2352;48.180;11.478;2023-06-14T08:11:06;3.55;;;3.28;;
4676;SDS011;2352;48.180;11.478;2023-06-14T08:14:09;7.03;;;3.30;;
4676;SDS011;2352;48.180;11.478;2023-06-14T08:17:13;3.37;;;2.77;;
4676;SDS011;2352;48.180;11.478;2023-06-14T08:20:16;3.47;;;3.08;;
4676;SDS011;2352;48.180;11.478;2023-06-14T08:23:19;2.78;;;2.53;;
4676;SDS011;2352;48.180;11.478;2023-06-14T08:26:23;2.72;;;2.53;;
4676;SDS011;2352;48.180;11.478;2023-06-14T08:29:29;4.35;;;3.25;;
4676;SDS011;2352;48.180;11.478;2023-06-14T08:32:34;3.58;;;3.28;;
4676;SDS011;2352;48.180;11.478;2023-06-14T08:35:37;3.80;;;3.17;;
4676;SDS011;2352;48.180;11.478;2023-06-14T08:38:40;3.40;;;2.75;;
4676;SDS011;2352;48.180;11.478;2023-06-14T08:41:45;3.33;;;2.85;;
4676;SDS011;2352;48.180;11.478;2023-06-14T08:44:49;5.20;;;2.50;;
4676;SDS011;2352;48.180;11.478;2023-06-14T08:47:54;3.42;;;2.33;;
4676;SDS011;2352;48.180;11.478;2023-06-14T08:51:01;3.33;;;2.83;;
4676;SDS011;2352;48.180;11.478;2023-06-14T08:54:06;2.55;;;2.35;;
4676;SDS011;2352;48.180;11.478;2023-06-14T08:57:10;4.25;;;3.42;;
4676;SDS011;2352;48.180;11.478;2023-06-14T09:00:16;4.65;;;4.35;;
4676;SDS011;2352;48.180;11.478;2023-06-14T09:03:23;3.30;;;2.42;;
4676;SDS011;2352;48.180;11.478;2023-06-14T09:06:31;2.83;;;2.60;;
4676;SDS011;2352;48.180;11.478;2023-06-14T09:09:37;4.97;;;3.80;;
4676;SDS011;2352;48.180;11.478;2023-06-14T09:12:47;2.50;;;2.30;;
4676;SDS011;2352;48.180;11.478;2023-06-14T09:15:50;2.75;;;2.45;;
4676;SDS011;2352;48.180;11.478;2023-06-14T09:18:55;3.72;;;3.42;;
4676;SDS011;2352;48.180;11.478;2023-06-14T09:22:00;2.63;;;2.25;;
4676;SDS011;2352;48.180;11.478;2023-06-14T09:25:03;2.63;;;2.17;;
4676;SDS011;2352;48.180;11.478;2023-06-14T09:28:06;2.60;;;2.40;;
4676;SDS011;2352;48.180;11.478;2023-06-14T09:31:10;2.63;;;2.42;;
4676;SDS011;2352;48.180;11.478;2023-06-14T09:34:15;2.45;;;2.25;;
4676;SDS011;2352;48.180;11.478;2023-06-14T09:37:28;3.28;;;2.38;;
4676;SDS011;2352;48.180;11.478;2023-06-14T09:40:33;2.88;;;2.38;;
4676;SDS011;2352;48.180;11.478;2023-06-14T09:43:38;2.80;;;2.60;;
4676;SDS011;2352;48.180;11.478;2023-06-14T09:46:41;2.67;;;2.40;;
4676;SDS011;2352;48.180;11.478;2023-06-14T09:49:45;3.03;;;2.75;;
4676;SDS011;2352;48.180;11.478;2023-06-14T09:52:48;2.03;;;1.92;;
4676;SDS011;2352;48.180;11.478;2023-06-14T09:55:55;2.65;;;2.20;;
4676;SDS011;2352;48.180;11.478;2023-06-14T09:59:00;4.03;;;2.28;;
4676;SDS011;2352;48.180;11.478;2023-06-14T10:02:10;4.72;;;3.20;;
4676;SDS011;2352;48.180;11.478;2023-06-14T10:05:18;2.88;;;2.67;;
4676;SDS011;2352;48.180;11.478;2023-06-14T10:08:23;3.97;;;2.45;;
4676;SDS011;2352;48.180;11.478;2023-06-14T10:11:29;7.22;;;2.47;;
4676;SDS011;2352;48.180;11.478;2023-06-14T10:14:32;3.25;;;2.38;;
4676;SDS011;2352;48.180;11.478;2023-06-14T10:17:38;3.75;;;2.50;;
4676;SDS011;2352;48.180;11.478;2023-06-14T10:20:49;3.30;;;2.65;;
4676;SDS011;2352;48.180;11.478;2023-06-14T10:23:58;3.45;;;2.80;;
4676;SDS011;2352;48.180;11.478;2023-06-14T10:27:06;3.15;;;2.80;;
4676;SDS011;2352;48.180;11.478;2023-06-14T10:30:12;2.92;;;2.63;;
4676;SDS011;2352;48.180;11.478;2023-06-14T10:33:17;2.72;;;2.53;;
4676;SDS011;2352;48.180;11.478;2023-06-14T10:36:29;2.78;;;2.58;;
4676;SDS011;2352;48.180;11.478;2023-06-14T10:39:37;2.90;;;2.13;;
4676;SDS011;2352;48.180;11.478;2023-06-14T10:42:41;4.45;;;2.60;;
4676;SDS011;2352;48.180;11.478;2023-06-14T10:49:20;2.70;;;2.50;;
4676;SDS011;2352;48.180;11.478;2023-06-14T10:52:41;2.92;;;2.72;;
4676;SDS011;2352;48.180;11.478;2023-06-14T10:55:47;2.22;;;2.08;;
4676;SDS011;2352;48.180;11.478;2023-06-14T10:58:50;2.45;;;2.35;;
4676;SDS011;2352;48.180;11.478;2023-06-14T11:01:58;6.25;;;2.78;;
4676;SDS011;2352;48.180;11.478;2023-06-14T11:05:23;5.28;;;2.72;;
4676;SDS011;2352;48.180;11.478;2023-06-14T11:11:52;5.57;;;3.15;;
4676;SDS011;2352;48.180;11.478;2023-06-14T11:14:58;2.55;;;2.40;;
4676;SDS011;2352;48.180;11.478;2023-06-14T11:18:01;3.05;;;2.83;;
4676;SDS011;2352;48.180;11.478;2023-06-14T11:21:05;3.70;;;2.40;;
4676;SDS011;2352;48.180;11.478;2023-06-14T11:24:10;2.55;;;2.42;;
4676;SDS011;2352;48.180;11.478;2023-06-14T11:27:14;2.83;;;2.63;;
4676;SDS011;2352;48.180;11.478;2023-06-14T11:30:17;3.28;;;2.63;;
4676;SDS011;2352;48.180;11.478;2023-06-14T11:33:20;3.15;;;2.88;;
4676;SDS011;2352;48.180;11.478;2023-06-14T11:36:26;3.03;;;2.72;;
4676;SDS011;2352;48.180;11.478;2023-06-14T11:39:31;3.00;;;2.72;;
4676;SDS011;2352;48.180;11.478;2023-06-14T11:42:35;2.75;;;2.55;;
4676;SDS011;2352;48.180;11.478;2023-06-14T11:45:39;3.42;;;3.13;;
4676;SDS011;2352;48.180;11.478;2023-06-14T11:48:42;5.03;;;2.90;;
4676;SDS011;2352;48.180;11.478;2023-06-14T11:51:46;2.88;;;2.65;;
4676;SDS011;2352;48.180;11.478;2023-06-14T11:54:49;3.20;;;2.90;;
4676;SDS011;2352;48.180;11.478;2023-06-14T11:57:54;2.55;;;2.40;;
4676;SDS011;2352;48.180;11.478;2023-06-14T12:00:58;3.10;;;2.90;;
4676;SDS011;2352;48.180;11.478;2023-06-14T12:04:01;2.83;;;2.63;;
4676;SDS011;2352;48.180;11.478;2023-06-14T12:07:11;2.85;;;2.63;;
4676;SDS011;2352;48.180;11.478;2023-06-14T12:10:16;3.20;;;2.53;;
4676;SDS011;2352;48.180;11.478;2023-06-14T12:13:20;3.30;;;3.10;;
4676;SDS011;2352;48.180;11.478;2023-06-14T12:16:29;3.15;;;2.80;;
4676;SDS011;2352;48.180;11.478;2023-06-14T12:19:40;5.28;;;3.45;;
4676;SDS011;2352;48.180;11.478;2023-06-14T12:22:50;3.13;;;2.88;;
4676;SDS011;2352;48.180;11.478;2023-06-14T12:25:54;3.38;;;2.80;;
4676;SDS011;2352;48.180;11.478;2023-06-14T12:29:04;2.17;;;2.08;;
4676;SDS011;2352;48.180;11.478;2023-06-14T12:32:08;2.80;;;2.60;;
4676;SDS011;2352;48.180;11.478;2023-06-14T12:35:11;5.00;;;2.53;;
4676;SDS011;2352;48.180;11.478;2023-06-14T12:38:14;2.78;;;2.53;;
4676;SDS011;2352;48.180;11.478;2023-06-14T12:41:18;3.17;;;2.78;;
4676;SDS011;2352;48.180;11.478;2023-06-14T12:44:24;5.13;;;2.60;;
4676;SDS011;2352;48.180;11.478;2023-06-14T12:47:27;3.50;;;2.83;;
4676;SDS011;2352;48.180;11.478;2023-06-14T12:50:30;3.25;;;3.05;;
4676;SDS011;2352;48.180;11.478;2023-06-14T12:53:32;6.40;;;2.75;;
4676;SDS011;2352;48.180;11.478;2023-06-14T12:56:35;2.65;;;2.45;;
4676;SDS011;2352;48.180;11.478;2023-06-14T12:59:40;2.78;;;2.58;;
4676;SDS011;2352;48.180;11.478;2023-06-14T13:02:43;3.13;;;2.85;;
4676;SDS011;2352;48.180;11.478;2023-06-14T13:05:46;3.45;;;3.15;;
4676;SDS011;2352;48.180;11.478;2023-06-14T13:08:49;3.25;;;2.95;;
4676;SDS011;2352;48.180;11.478;2023-06-14T13:11:52;3.65;;;3.38;;
4676;SDS011;2352;48.180;11.478;2023-06-14T13:14:56;2.58;;;2.38;;
4676;SDS011;2352;48.180;11.478;2023-06-14T13:17:59;2.70;;;2.50;;
4676;SDS011;2352;48.180;11.478;2023-06-14T13:21:04;3.17;;;2.88;;
4676;SDS011;2352;48.180;11.478;2023-06-14T13:24:07;2.85;;;2.58;;
4676;SDS011;2352;48.180;11.478;2023-06-14T13:27:10;3.25;;;2.83;;
4676;SDS011;2352;48.180;11.478;2023-06-14T13:30:16;2.65;;;2.50;;
4676;SDS011;2352;48.180;11.478;2023-06-14T13:33:20;3.97;;;3.15;;
4676;SDS011;2352;48.180;11.478;2023-06-14T13:36:23;2.75;;;2.45;;
4676;SDS011;2352;48.180;11.478;2023-06-14T13:39:25;6.47;;;2.85;;
4676;SDS011;2352;48.180;11.478;2023-06-14T13:42:28;2.97;;;2.78;;
4676;SDS011;2352;48.180;11.478;2023-06-14T13:45:34;3.15;;;2.95;;
4676;SDS011;2352;48.180;11.478;2023-06-14T13:48:38;3.13;;;2.90;;
4676;SDS011;2352;48.180;11.478;2023-06-14T13:51:41;2.97;;;2.78;;
4676;SDS011;2352;48.180;11.478;2023-06-14T13:54:44;2.78;;;2.58;;
4676;SDS011;2352;48.180;11.478;2023-06-14T13:57:49;2.95;;;2.75;;
4676;SDS011;2352;48.180;11.478;2023-06-14T14:00:53;3.85;;;3.00;;
4676;SDS011;2352;48.180;11.478;2023-06-14T14:03:56;3.78;;;2.75;;
4676;SDS011;2352;48.180;11.478;2023-06-14T14:07:02;2.95;;;2.75;;
4676;SDS011;2352;48.180;11.478;2023-06-14T14:10:05;7.97;;;3.47;;
4676;SDS011;2352;48.180;11.478;2023-06-14T14:13:09;2.80;;;2.60;;
4676;SDS011;2352;48.180;11.478;2023-06-14T14:16:17;7.32;;;2.72;;
4676;SDS011;2352;48.180;11.478;2023-06-14T14:19:21;4.30;;;2.25;;
4676;SDS011;2352;48.180;11.478;2023-06-14T14:22:24;3.85;;;2.75;;
4676;SDS011;2352;48.180;11.478;2023-06-14T14:25:27;2.22;;;2.13;;
4676;SDS011;2352;48.180;11.478;2023-06-14T14:28:30;2.50;;;2.30;;
4676;SDS011;2352;48.180;11.478;2023-06-14T14:31:35;3.55;;;2.90;;
4676;SDS011;2352;48.180;11.478;2023-06-14T14:34:38;2.95;;;2.30;;
4676;SDS011;2352;48.180;11.478;2023-06-14T14:37:41;2.60;;;2.40;;
4676;SDS011;2352;48.180;11.478;2023-06-14T14:40:44;3.22;;;3.03;;
4676;SDS011;2352;48.180;11.478;2023-06-14T14:43:47;2.75;;;2.45;;
4676;SDS011;2352;48.180;11.478;2023-06-14T14:46:51;2.70;;;2.47;;
4676;SDS011;2352;48.180;11.478;2023-06-14T14:49:54;3.30;;;3.00;;
4676;SDS011;2352;48.180;11.478;2023-06-14T14:52:57;3.60;;;2.50;;
4676;SDS011;2352;48.180;11.478;2023-06-14T14:56:00;7.20;;;2.70;;
4676;SDS011;2352;48.180;11.478;2023-06-14T14:59:06;2.55;;;2.38;;
4676;SDS011;2352;48.180;11.478;2023-06-14T15:02:10;3.22;;;3.03;;
4676;SDS011;2352;48.180;11.478;2023-06-14T15:05:13;3.30;;;3.10;;
4676;SDS011;2352;48.180;11.478;2023-06-14T15:08:16;4.47;;;2.50;;
4676;SDS011;2352;48.180;11.478;2023-06-14T15:11:19;3.67;;;3.28;;
4676;SDS011;2352;48.180;11.478;2023-06-14T15:14:21;2.70;;;2.50;;
4676;SDS011;2352;48.180;11.478;2023-06-14T15:17:26;3.25;;;2.75;;
4676;SDS011;2352;48.180;11.478;2023-06-14T15:20:29;2.58;;;2.38;;
4676;SDS011;2352;48.180;11.478;2023-06-14T15:23:32;3.35;;;3.05;;
4676;SDS011;2352;48.180;11.478;2023-06-14T15:26:35;2.65;;;2.42;;
4676;SDS011;2352;48.180;11.478;2023-06-14T15:29:38;3.03;;;2.83;;
4676;SDS011;2352;48.180;11.478;2023-06-14T15:32:43;2.67;;;2.28;;
4676;SDS011;2352;48.180;11.478;2023-06-14T15:35:46;3.13;;;2.92;;
4676;SDS011;2352;48.180;11.478;2023-06-14T15:38:49;3.45;;;2.95;;
4676;SDS011;2352;48.180;11.478;2023-06-14T15:41:52;3.60;;;2.70;;
4676;SDS011;2352;48.180;11.478;2023-06-14T15:44:55;2.70;;;2.50;;
4676;SDS011;2352;48.180;11.478;2023-06-14T15:47:59;2.33;;;2.20;;
4676;SDS011;2352;48.180;11.478;2023-06-14T15:51:02;2.60;;;2.40;;
4676;SDS011;2352;48.180;11.478;2023-06-14T15:54:05;5.15;;;2.50;;
4676;SDS011;2352;48.180;11.478;2023-06-14T15:57:08;4.88;;;2.90;;
4676;SDS011;2352;48.180;11.478;2023-06-14T16:00:13;2.60;;;2.40;;
4676;SDS011;2352;48.180;11.478;2023-06-14T16:03:19;3.08;;;2.88;;
4676;SDS011;2352;48.180;11.478;2023-06-14T16:06:22;3.05;;;2.75;;
4676;SDS011;2352;48.180;11.478;2023-06-14T16:09:24;3.42;;;3.13;;
4676;SDS011;2352;48.180;11.478;2023-06-14T16:12:27;4.15;;;3.58;;
4676;SDS011;2352;48.180;11.478;2023-06-14T16:15:30;3.33;;;3.03;;
4676;SDS011;2352;48.180;11.478;2023-06-14T16:18:34;3.30;;;3.00;;
4676;SDS011;2352;48.180;11.478;2023-06-14T16:21:37;3.72;;;2.78;;
4676;SDS011;2352;48.180;11.478;2023-06-14T16:24:40;3.00;;;2.78;;
4676;SDS011;2352;48.180;11.478;2023-06-14T16:27:43;2.25;;;2.13;;
4676;SDS011;2352;48.180;11.478;2023-06-14T16:30:46;2.85;;;2.70;;
4676;SDS011;2352;48.180;11.478;2023-06-14T16:33:50;2.88;;;2.50;;
4676;SDS011;2352;48.180;11.478;2023-06-14T16:36:55;5.03;;;2.92;;
4676;SDS011;2352;48.180;11.478;2023-06-14T16:39:58;2.97;;;2.78;;
4676;SDS011;2352;48.180;11.478;2023-06-14T16:43:01;3.28;;;2.97;;
4676;SDS011;2352;48.180;11.478;2023-06-14T16:46:04;2.63;;;2.45;;
4676;SDS011;2352;48.180;11.478;2023-06-14T16:49:08;3.03;;;2.83;;
4676;SDS011;2352;48.180;11.478;2023-06-14T16:52:11;3.05;;;2.85;;
4676;SDS011;2352;48.180;11.478;2023-06-14T16:55:14;3.58;;;3.20;;
4676;SDS011;2352;48.180;11.478;2023-06-14T16:58:17;4.60;;;3.28;;
4676;SDS011;2352;48.180;11.478;2023-06-14T17:01:20;4.72;;;3.50;;
4676;SDS011;2352;48.180;11.478;2023-06-14T17:04:24;2.92;;;2.67;;
4676;SDS011;2352;48.180;11.478;2023-06-14T17:07:27;3.63;;;3.20;;
4676;SDS011;2352;48.180;11.478;2023-06-14T17:10:30;2.90;;;2.70;;
4676;SDS011;2352;48.180;11.478;2023-06-14T17:13:34;2.88;;;2.65;;
4676;SDS011;2352;48.180;11.478;2023-06-14T17:16:38;8.15;;;2.95;;
4676;SDS011;2352;48.180;11.478;2023-06-14T17:19:42;3.05;;;2.85;;
4676;SDS011;2352;48.180;11.478;2023-06-14T17:22:45;2.95;;;2.75;;
4676;SDS011;2352;48.180;11.478;2023-06-14T17:25:48;2.95;;;2.75;;
4676;SDS011;2352;48.180;11.478;2023-06-14T17:28:51;3.22;;;2.88;;
4676;SDS011;2352;48.180;11.478;2023-06-14T17:31:55;3.22;;;3.03;;
4676;SDS011;2352;48.180;11.478;2023-06-14T17:35:00;3.33;;;3.10;;
4676;SDS011;2352;48.180;11.478;2023-06-14T17:38:03;3.22;;;2.67;;
4676;SDS011;2352;48.180;11.478;2023-06-14T17:41:08;3.40;;;3.20;;
4676;SDS011;2352;48.180;11.478;2023-06-14T17:44:11;6.65;;;3.22;;
4676;SDS011;2352;48.180;11.478;2023-06-14T17:47:14;3.72;;;2.63;;
4676;SDS011;2352;48.180;11.478;2023-06-14T17:50:36;3.28;;;3.08;;
4676;SDS011;2352;48.180;11.478;2023-06-14T17:53:40;8.63;;;3.05;;
4676;SDS011;2352;48.180;11.478;2023-06-14T17:56:46;2.65;;;2.45;;
4676;SDS011;2352;48.180;11.478;2023-06-14T17:59:50;3.10;;;2.50;;
4676;SDS011;2352;48.180;11.478;2023-06-14T18:02:53;2.97;;;2.78;;
4676;SDS011;2352;48.180;11.478;2023-06-14T18:06:00;3.50;;;3.30;;
4676;SDS011;2352;48.180;11.478;2023-06-14T18:09:06;3.20;;;2.97;;
4676;SDS011;2352;48.180;11.478;2023-06-14T18:12:09;2.85;;;2.65;;
4676;SDS011;2352;48.180;11.478;2023-06-14T18:15:12;3.13;;;2.92;;
4676;SDS011;2352;48.180;11.478;2023-06-14T18:18:15;4.78;;;3.13;;
4676;SDS011;2352;48.180;11.478;2023-06-14T18:21:19;3.20;;;2.90;;
4676;SDS011;2352;48.180;11.478;2023-06-14T18:24:23;3.22;;;3.03;;
4676;SDS011;2352;48.180;11.478;2023-06-14T18:27:26;3.80;;;3.50;;
4676;SDS011;2352;48.180;11.478;2023-06-14T18:30:29;3.03;;;2.83;;
4676;SDS011;2352;48.180;11.478;2023-06-14T18:33:33;6.35;;;2.80;;
4676;SDS011;2352;48.180;11.478;2023-06-14T18:36:37;4.43;;;2.78;;
4676;SDS011;2352;48.180;11.478;2023-06-14T18:39:41;3.92;;;2.92;;
4676;SDS011;2352;48.180;11.478;2023-06-14T18:42:44;2.80;;;2.60;;
4676;SDS011;2352;48.180;11.478;2023-06-14T18:45:47;3.28;;;2.97;;
4676;SDS011;2352;48.180;11.478;2023-06-14T18:48:50;3.47;;;3.17;;
4676;SDS011;2352;48.180;11.478;2023-06-14T18:51:54;3.33;;;3.05;;
4676;SDS011;2352;48.180;11.478;2023-06-14T18:54:57;3.33;;;3.13;;
4676;SDS011;2352;48.180;11.478;2023-06-14T18:58:00;12.55;;;3.60;;